Time;durP1;ratioP1;P1;durP2;ratioP2;P2;SDS_P1;SDS_P2;PMS_P1;PMS_P2;Temp;Humidity;BMP_temperature;BMP_pressure;BME280_temperature;BME280_humidity;BME280_pressure;Samples;Min_cycle;Max_cycle;Signal;HPM_P1;HPM_P2
2022/04/24 00:01:46;;;;;;;7.20;6.55;;;;;;;;;;5075995;28;20442;-70
2022/04/24 00:04:13;;;;;;;7.17;6.57;;;;;;;;;;5076218;28;20190;-71
2022/04/24 00:06:41;;;;;;;7.50;6.80;;;;;;;;;;5076010;28;20472;-71
2022/04/24 00:09:10;;;;;;;6.80;6.20;;;;;;;;;;5076151;28;20535;-70
2022/04/24 00:11:37;;;;;;;7.27;6.63;;;;;;;;;;5076025;28;20463;-71
2022/04/24 00:14:09;;;;;;;8.53;7.60;;;;;;;;;;5076146;28;20437;-70
2022/04/24 00:16:36;;;;;;;7.73;6.80;;;;;;;;;;5075499;28;20988;-71
2022/04/24 00:19:04;;;;;;;7.40;6.70;;;;;;;;;;5076142;28;20528;-68
2022/04/24 00:21:31;;;;;;;7.03;6.43;;;;;;;;;;5075892;28;20454;-71
2022/04/24 00:23:58;;;;;;;7.07;6.47;;;;;;;;;;5075933;28;20788;-70
2022/04/24 00:26:27;;;;;;;10.83;7.77;;;;;;;;;;5076528;28;20479;-70
2022/04/24 00:28:54;;;;;;;8.50;7.70;;;;;;;;;;5076001;28;20531;-70
2022/04/24 00:31:22;;;;;;;8.40;7.70;;;;;;;;;;5075957;28;20801;-71
2022/04/24 00:33:49;;;;;;;7.70;7.10;;;;;;;;;;5075628;28;20194;-71
2022/04/24 00:36:16;;;;;;;8.88;7.82;;;;;;;;;;5075364;28;20444;-71
2022/04/24 00:38:43;;;;;;;8.73;7.93;;;;;;;;;;5075592;28;20198;-71
2022/04/24 00:41:10;;;;;;;8.13;7.33;;;;;;;;;;5075546;28;20447;-71
2022/04/24 00:43:39;;;;;;;8.13;7.35;;;;;;;;;;5075149;28;20929;-71
2022/04/24 00:46:12;;;;;;;9.68;7.85;;;;;;;;;;5075109;28;20319;-70
2022/04/24 00:48:40;;;;;;;11.82;7.68;;;;;;;;;;5075081;28;20192;-71
2022/04/24 00:51:07;;;;;;;8.27;7.47;;;;;;;;;;5075071;28;20652;-71
2022/04/24 00:53:35;;;;;;;9.43;8.52;;;;;;;;;;5075609;28;20450;-71
2022/04/24 00:56:02;;;;;;;8.77;7.97;;;;;;;;;;5074946;28;20205;-70
2022/04/24 00:58:29;;;;;;;11.17;8.60;;;;;;;;;;5075355;28;20452;-71
2022/04/24 01:00:58;;;;;;;8.50;7.70;;;;;;;;;;5073870;28;20930;-70
2022/04/24 01:03:25;;;;;;;9.65;8.65;;;;;;;;;;5074880;28;20480;-71
2022/04/24 01:05:53;;;;;;;9.05;8.25;;;;;;;;;;5075224;28;20555;-70
2022/04/24 01:08:20;;;;;;;8.77;7.95;;;;;;;;;;5075111;28;20578;-70
2022/04/24 01:10:47;;;;;;;9.40;7.97;;;;;;;;;;5075010;28;20202;-70
2022/04/24 01:13:14;;;;;;;8.80;8.00;;;;;;;;;;5074813;28;20217;-70
2022/04/24 01:15:42;;;;;;;11.15;8.27;;;;;;;;;;5074827;28;20213;-70
2022/04/24 01:18:11;;;;;;;9.02;8.02;;;;;;;;;;5074368;28;20233;-70
2022/04/24 01:20:39;;;;;;;9.18;8.00;;;;;;;;;;5075406;28;20192;-70
2022/04/24 01:23:06;;;;;;;8.20;7.50;;;;;;;;;;5074600;28;20217;-70
2022/04/24 01:25:33;;;;;;;8.85;8.05;;;;;;;;;;5074706;28;20555;-70
2022/04/24 01:28:01;;;;;;;9.60;8.63;;;;;;;;;;5074462;28;20578;-70
2022/04/24 01:30:28;;;;;;;8.95;8.15;;;;;;;;;;5074561;28;20287;-71
2022/04/24 01:32:55;;;;;;;8.85;7.97;;;;;;;;;;5074102;28;20201;-71
2022/04/24 01:35:23;;;;;;;7.95;7.30;;;;;;;;;;5075048;28;20224;-70
2022/04/24 01:37:52;;;;;;;9.15;8.25;;;;;;;;;;5074323;28;20205;-70
2022/04/24 01:40:20;;;;;;;9.30;8.50;;;;;;;;;;5074845;28;20644;-71
2022/04/24 01:42:47;;;;;;;8.43;7.63;;;;;;;;;;5074259;28;20200;-70
2022/04/24 01:45:14;;;;;;;10.68;8.02;;;;;;;;;;5074657;28;20201;-70
2022/04/24 01:47:41;;;;;;;10.98;8.00;;;;;;;;;;5074300;28;20229;-72
2022/04/24 01:50:09;;;;;;;8.27;7.50;;;;;;;;;;5074614;28;20642;-71
2022/04/24 01:52:36;;;;;;;9.93;8.15;;;;;;;;;;5073730;28;20197;-70
2022/04/24 01:55:05;;;;;;;8.90;8.10;;;;;;;;;;5074113;28;20591;-70
2022/04/24 01:57:32;;;;;;;10.00;8.25;;;;;;;;;;5074172;28;20230;-70
2022/04/24 01:59:59;;;;;;;10.70;8.20;;;;;;;;;;5073930;28;20221;-70
2022/04/24 02:02:26;;;;;;;8.23;7.43;;;;;;;;;;5073710;28;20655;-70
2022/04/24 02:04:54;;;;;;;7.82;6.93;;;;;;;;;;5073871;28;20225;-70
2022/04/24 02:07:21;;;;;;;10.43;7.20;;;;;;;;;;5074191;28;20587;-70
2022/04/24 02:09:48;;;;;;;8.55;7.65;;;;;;;;;;5073879;28;20197;-70
2022/04/24 02:12:16;;;;;;;11.02;7.80;;;;;;;;;;5073601;28;20288;-70
2022/04/24 02:14:44;;;;;;;7.88;7.18;;;;;;;;;;5073759;28;20200;-71
2022/04/24 02:17:11;;;;;;;7.60;7.00;;;;;;;;;;5073362;28;20288;-70
2022/04/24 02:19:38;;;;;;;11.98;7.30;;;;;;;;;;5073844;28;20300;-70
2022/04/24 02:22:06;;;;;;;8.55;7.30;;;;;;;;;;5073869;28;20202;-70
2022/04/24 02:24:33;;;;;;;7.28;6.68;;;;;;;;;;5073631;28;20195;-70
2022/04/24 02:27:00;;;;;;;8.70;7.80;;;;;;;;;;5073598;28;20219;-71
2022/04/24 02:29:28;;;;;;;7.78;6.97;;;;;;;;;;5073288;28;20197;-72
2022/04/24 02:31:56;;;;;;;7.38;6.53;;;;;;;;;;5073659;28;20207;-72
2022/04/24 02:34:25;;;;;;;7.20;6.57;;;;;;;;;;5073624;28;20242;-72
2022/04/24 02:36:53;;;;;;;7.60;6.90;;;;;;;;;;5073645;28;20628;-72
2022/04/24 02:39:20;;;;;;;8.40;6.65;;;;;;;;;;5073160;28;20288;-72
2022/04/24 02:41:47;;;;;;;7.72;6.93;;;;;;;;;;5073738;28;20194;-71
2022/04/24 02:44:14;;;;;;;8.73;7.47;;;;;;;;;;5073472;28;20206;-72
2022/04/24 02:46:43;;;;;;;7.05;6.35;;;;;;;;;;5073357;28;20238;-71
2022/04/24 02:49:10;;;;;;;7.65;6.88;;;;;;;;;;5073690;28;20205;-72
2022/04/24 02:51:37;;;;;;;7.38;6.63;;;;;;;;;;5073899;28;20207;-71
2022/04/24 02:54:04;;;;;;;7.13;6.47;;;;;;;;;;5073391;28;20197;-72
2022/04/24 02:56:31;;;;;;;7.68;7.00;;;;;;;;;;5073560;28;20541;-72
2022/04/24 02:58:59;;;;;;;6.95;6.30;;;;;;;;;;5073370;28;20631;-72
2022/04/24 03:01:26;;;;;;;7.13;6.43;;;;;;;;;;5073588;28;20288;-72
2022/04/24 03:03:55;;;;;;;6.55;5.90;;;;;;;;;;5073910;28;20199;-72
2022/04/24 03:06:22;;;;;;;8.60;7.70;;;;;;;;;;5073207;28;20285;-72
2022/04/24 03:08:49;;;;;;;7.70;7.00;;;;;;;;;;5072818;28;20765;-72
2022/04/24 03:11:16;;;;;;;6.25;5.75;;;;;;;;;;5073254;28;20193;-71
2022/04/24 03:13:43;;;;;;;7.88;7.15;;;;;;;;;;5074003;28;20204;-72
2022/04/24 03:16:11;;;;;;;7.97;6.60;;;;;;;;;;5073705;28;20545;-70
2022/04/24 03:18:38;;;;;;;8.35;6.55;;;;;;;;;;5072829;28;20204;-70
2022/04/24 03:21:07;;;;;;;8.00;6.35;;;;;;;;;;5073093;28;20556;-70
2022/04/24 03:23:34;;;;;;;6.85;5.78;;;;;;;;;;5074090;28;20228;-70
2022/04/24 03:26:01;;;;;;;7.15;5.68;;;;;;;;;;5076903;28;20200;-71
2022/04/24 03:28:28;;;;;;;8.70;6.75;;;;;;;;;;5076983;28;20224;-71
2022/04/24 03:30:55;;;;;;;6.30;5.70;;;;;;;;;;5076803;28;20203;-71
2022/04/24 03:33:22;;;;;;;6.90;6.28;;;;;;;;;;5076977;28;20208;-71
2022/04/24 03:35:50;;;;;;;6.97;6.32;;;;;;;;;;5076466;28;20200;-71
2022/04/24 03:38:18;;;;;;;8.55;7.07;;;;;;;;;;5076760;28;20197;-71
2022/04/24 03:40:45;;;;;;;10.48;6.32;;;;;;;;;;5076320;28;20717;-71
2022/04/24 03:43:12;;;;;;;6.68;6.07;;;;;;;;;;5076307;28;20201;-71
2022/04/24 03:45:40;;;;;;;9.90;7.03;;;;;;;;;;5076247;28;20229;-70
2022/04/24 03:48:07;;;;;;;7.68;6.45;;;;;;;;;;5076418;28;20208;-71
2022/04/24 03:50:34;;;;;;;6.70;5.68;;;;;;;;;;5076126;28;20217;-70
2022/04/24 03:53:02;;;;;;;8.48;6.03;;;;;;;;;;5076686;28;20201;-70
2022/04/24 03:55:31;;;;;;;6.18;5.68;;;;;;;;;;5076277;28;20283;-71
2022/04/24 03:57:58;;;;;;;5.97;5.40;;;;;;;;;;5076381;28;20593;-71
2022/04/24 04:00:25;;;;;;;7.07;5.85;;;;;;;;;;5076346;28;20203;-71
2022/04/24 04:02:53;;;;;;;6.32;5.75;;;;;;;;;;5081459;28;20645;-70
2022/04/24 04:05:22;;;;;;;9.13;5.85;;;;;;;;;;5095306;28;20205;-70
2022/04/24 04:07:49;;;;;;;7.55;6.10;;;;;;;;;;5095532;28;20224;-71
2022/04/24 04:10:16;;;;;;;8.40;6.32;;;;;;;;;;5095699;28;20196;-71
2022/04/24 04:12:45;;;;;;;10.07;6.15;;;;;;;;;;5095917;28;20212;-71
2022/04/24 04:15:12;;;;;;;7.40;6.32;;;;;;;;;;5095618;28;20200;-70
2022/04/24 04:17:40;;;;;;;6.40;5.80;;;;;;;;;;5095773;28;20217;-70
2022/04/24 04:20:11;;;;;;;8.32;6.38;;;;;;;;;;5096007;28;20199;-70
2022/04/24 04:22:45;;;;;;;5.85;5.35;;;;;;;;;;5095795;28;20763;-70
2022/04/24 04:25:12;;;;;;;9.25;5.80;;;;;;;;;;5096030;28;20555;-70
2022/04/24 04:27:40;;;;;;;6.85;6.25;;;;;;;;;;5095511;28;20750;-70
2022/04/24 04:30:09;;;;;;;9.27;5.70;;;;;;;;;;5095685;28;20236;-70
2022/04/24 04:32:37;;;;;;;6.43;5.72;;;;;;;;;;5095617;28;20192;-70
2022/04/24 04:35:05;;;;;;;7.55;6.07;;;;;;;;;;5095329;28;20201;-71
2022/04/24 04:37:32;;;;;;;6.30;5.60;;;;;;;;;;5095556;28;20203;-71
2022/04/24 04:40:00;;;;;;;7.93;6.63;;;;;;;;;;5095969;28;20201;-71
2022/04/24 04:42:27;;;;;;;7.28;6.57;;;;;;;;;;5095462;28;20196;-71
2022/04/24 04:44:56;;;;;;;6.80;6.30;;;;;;;;;;5095649;28;20193;-71
2022/04/24 04:47:25;;;;;;;7.70;6.55;;;;;;;;;;5095372;28;20516;-71
2022/04/24 04:49:52;;;;;;;6.25;5.63;;;;;;;;;;5095810;28;20199;-71
2022/04/24 04:52:19;;;;;;;9.30;6.60;;;;;;;;;;5095616;28;20215;-71
2022/04/24 04:54:46;;;;;;;8.98;6.28;;;;;;;;;;5095986;28;20633;-71
2022/04/24 04:57:14;;;;;;;6.10;5.60;;;;;;;;;;5094935;28;20732;-71
2022/04/24 04:59:41;;;;;;;7.95;6.35;;;;;;;;;;5095954;28;20234;-71
2022/04/24 05:02:08;;;;;;;9.38;5.70;;;;;;;;;;5095263;28;20234;-72
2022/04/24 05:04:38;;;;;;;6.00;5.50;;;;;;;;;;5095815;28;20201;-71
2022/04/24 05:07:07;;;;;;;7.22;6.53;;;;;;;;;;5094962;28;20248;-71
2022/04/24 05:09:34;;;;;;;6.43;5.88;;;;;;;;;;5095191;28;20217;-71
2022/04/24 05:12:01;;;;;;;6.97;6.32;;;;;;;;;;5095385;28;20291;-71
2022/04/24 05:14:29;;;;;;;6.25;5.72;;;;;;;;;;5095298;28;20232;-71
2022/04/24 05:16:57;;;;;;;6.47;5.97;;;;;;;;;;5095011;28;20196;-71
2022/04/24 05:19:24;;;;;;;9.75;6.80;;;;;;;;;;5095294;28;20211;-71
2022/04/24 05:21:53;;;;;;;7.60;5.75;;;;;;;;;;5094998;28;20223;-71
2022/04/24 05:24:20;;;;;;;7.82;7.13;;;;;;;;;;5094902;28;20191;-71
2022/04/24 05:26:47;;;;;;;6.35;5.78;;;;;;;;;;5094344;28;20199;-71
2022/04/24 05:29:15;;;;;;;7.45;6.40;;;;;;;;;;5094712;28;20216;-71
2022/04/24 05:31:42;;;;;;;7.10;5.60;;;;;;;;;;5094438;28;20683;-72
2022/04/24 05:34:10;;;;;;;9.45;6.10;;;;;;;;;;5094442;28;20206;-71
2022/04/24 05:36:37;;;;;;;6.57;5.97;;;;;;;;;;5094297;28;20218;-71
2022/04/24 05:39:06;;;;;;;7.45;6.75;;;;;;;;;;5095451;28;20197;-70
2022/04/24 05:41:33;;;;;;;6.97;6.28;;;;;;;;;;5094609;28;20192;-71
2022/04/24 05:44:00;;;;;;;6.45;5.85;;;;;;;;;;5094300;28;20199;-69
2022/04/24 05:46:27;;;;;;;7.53;6.25;;;;;;;;;;5093395;28;20315;-69
2022/04/24 05:48:56;;;;;;;6.88;6.03;;;;;;;;;;5094290;28;20226;-68
2022/04/24 05:51:23;;;;;;;8.43;5.75;;;;;;;;;;5094108;28;20198;-68
2022/04/24 05:53:50;;;;;;;6.57;5.97;;;;;;;;;;5094744;28;20202;-73
2022/04/24 05:56:19;;;;;;;10.82;6.32;;;;;;;;;;5093670;28;20287;-68
2022/04/24 05:58:46;;;;;;;6.78;6.07;;;;;;;;;;5094384;28;20285;-68
2022/04/24 06:01:13;;;;;;;8.82;5.47;;;;;;;;;;5093952;28;20298;-70
2022/04/24 06:03:41;;;;;;;7.68;6.13;;;;;;;;;;5094179;28;20574;-70
2022/04/24 06:06:08;;;;;;;6.90;6.20;;;;;;;;;;5093942;28;20204;-70
2022/04/24 06:08:35;;;;;;;8.30;6.25;;;;;;;;;;5093966;28;20211;-69
2022/04/24 06:11:02;;;;;;;6.50;5.90;;;;;;;;;;5094064;28;20195;-69
2022/04/24 06:13:31;;;;;;;9.93;7.05;;;;;;;;;;5093852;28;20203;-69
2022/04/24 06:15:58;;;;;;;6.38;5.78;;;;;;;;;;5094072;28;20631;-70
2022/04/24 06:18:25;;;;;;;8.30;5.90;;;;;;;;;;5093952;28;20196;-69
2022/04/24 06:20:53;;;;;;;8.23;6.53;;;;;;;;;;5094150;28;20227;-70
2022/04/24 06:23:20;;;;;;;8.13;6.60;;;;;;;;;;5093940;28;20231;-70
2022/04/24 06:25:48;;;;;;;7.68;6.38;;;;;;;;;;5093517;28;20196;-70
2022/04/24 06:28:15;;;;;;;6.65;6.05;;;;;;;;;;5093475;28;20247;-71
2022/04/24 06:30:43;;;;;;;6.53;5.85;;;;;;;;;;5093791;28;20211;-70
2022/04/24 06:33:11;;;;;;;6.55;5.75;;;;;;;;;;5093981;28;20196;-70
2022/04/24 06:35:39;;;;;;;7.13;6.43;;;;;;;;;;5093146;28;20256;-70
2022/04/24 06:38:06;;;;;;;6.78;6.07;;;;;;;;;;5093787;28;20211;-70
2022/04/24 06:40:33;;;;;;;6.40;5.82;;;;;;;;;;5093721;28;20200;-70
2022/04/24 06:43:02;;;;;;;6.90;6.15;;;;;;;;;;5093350;28;20190;-70
2022/04/24 06:45:30;;;;;;;9.02;6.35;;;;;;;;;;5093396;28;20280;-70
2022/04/24 06:48:00;;;;;;;6.93;5.95;;;;;;;;;;5093196;28;20278;-70
2022/04/24 06:50:28;;;;;;;7.05;5.82;;;;;;;;;;5093263;28;20204;-70
2022/04/24 06:52:59;;;;;;;6.78;6.18;;;;;;;;;;5093546;28;20203;-70
2022/04/24 06:55:26;;;;;;;12.68;9.23;;;;;;;;;;5093673;28;20290;-70
2022/04/24 06:57:53;;;;;;;7.85;6.68;;;;;;;;;;5093529;28;20197;-70
2022/04/24 07:00:21;;;;;;;6.97;6.32;;;;;;;;;;5098180;28;20199;-70
2022/04/24 07:02:48;;;;;;;9.43;7.72;;;;;;;;;;5097274;28;20221;-70
2022/04/24 07:05:17;;;;;;;9.68;7.35;;;;;;;;;;5097670;28;20284;-70
2022/04/24 07:07:44;;;;;;;7.07;6.38;;;;;;;;;;5097102;28;20224;-70
2022/04/24 07:10:12;;;;;;;7.73;6.80;;;;;;;;;;5097482;28;20227;-70
2022/04/24 07:12:46;;;;;;;9.98;7.40;;;;;;;;;;5097157;28;20446;-71
2022/04/24 07:15:13;;;;;;;7.97;6.05;;;;;;;;;;5097509;28;20197;-70
2022/04/24 07:17:41;;;;;;;6.68;6.05;;;;;;;;;;5097440;28;20195;-70
2022/04/24 07:20:09;;;;;;;6.78;6.10;;;;;;;;;;5097470;28;20282;-70
2022/04/24 07:22:47;;;;;;;7.32;6.65;;;;;;;;;;5097319;28;20253;-70
2022/04/24 07:25:15;;;;;;;8.52;6.95;;;;;;;;;;5097002;28;20232;-70
2022/04/24 07:27:42;;;;;;;8.55;7.40;;;;;;;;;;5097722;28;20197;-70
2022/04/24 07:30:13;;;;;;;6.83;6.23;;;;;;;;;;5096843;28;20720;-70
2022/04/24 07:32:41;;;;;;;9.03;7.00;;;;;;;;;;5097252;28;20439;-70
2022/04/24 07:35:10;;;;;;;8.35;6.90;;;;;;;;;;5097659;28;20533;-70
2022/04/24 07:37:37;;;;;;;9.77;6.80;;;;;;;;;;5097616;28;20639;-70
2022/04/24 07:40:06;;;;;;;8.45;7.53;;;;;;;;;;5097260;28;20200;-70
2022/04/24 07:42:33;;;;;;;11.57;7.72;;;;;;;;;;5096560;28;20212;-70
2022/04/24 07:45:00;;;;;;;9.40;7.87;;;;;;;;;;5096542;28;20633;-69
2022/04/24 07:47:28;;;;;;;7.70;6.93;;;;;;;;;;5096674;28;20833;-69
2022/04/24 07:49:55;;;;;;;8.13;7.33;;;;;;;;;;5096584;28;20217;-69
2022/04/24 07:52:22;;;;;;;7.75;6.85;;;;;;;;;;5096407;28;20527;-70
2022/04/24 07:54:51;;;;;;;10.52;7.78;;;;;;;;;;5097171;28;20288;-70
2022/04/24 07:57:21;;;;;;;7.27;6.63;;;;;;;;;;5096929;28;20280;-69
2022/04/24 07:59:48;;;;;;;13.95;8.68;;;;;;;;;;5096416;28;20446;-69
2022/04/24 08:02:15;;;;;;;9.90;7.73;;;;;;;;;;5096816;28;20194;-70
2022/04/24 08:04:42;;;;;;;9.43;7.57;;;;;;;;;;5096548;28;20443;-70
2022/04/24 08:07:10;;;;;;;8.37;7.57;;;;;;;;;;5096509;28;20446;-69
2022/04/24 08:09:37;;;;;;;17.27;9.73;;;;;;;;;;5095660;28;20565;-70
2022/04/24 08:12:04;;;;;;;8.67;7.40;;;;;;;;;;5096027;28;20194;-70
2022/04/24 08:14:33;;;;;;;12.50;7.87;;;;;;;;;;5095958;28;20435;-70
2022/04/24 08:17:00;;;;;;;8.30;7.50;;;;;;;;;;5095607;28;20489;-70
2022/04/24 08:19:28;;;;;;;7.67;6.97;;;;;;;;;;5096176;28;20476;-70
2022/04/24 08:21:55;;;;;;;9.73;8.00;;;;;;;;;;5096041;28;20451;-70
2022/04/24 08:24:22;;;;;;;10.10;9.10;;;;;;;;;;5095997;28;20584;-70
2022/04/24 08:26:49;;;;;;;8.27;7.30;;;;;;;;;;5095774;28;20250;-69
2022/04/24 08:29:16;;;;;;;8.40;7.63;;;;;;;;;;5095814;28;20813;-70
2022/04/24 08:31:45;;;;;;;9.60;8.60;;;;;;;;;;5095940;28;20475;-70
2022/04/24 08:34:12;;;;;;;17.47;7.80;;;;;;;;;;5095900;28;20469;-71
2022/04/24 08:36:39;;;;;;;8.93;8.00;;;;;;;;;;5095264;28;20443;-69
2022/04/24 08:39:06;;;;;;;7.97;7.13;;;;;;;;;;5095557;28;20532;-69
2022/04/24 08:41:36;;;;;;;10.70;7.80;;;;;;;;;;5095472;28;20564;-69
2022/04/24 08:44:04;;;;;;;8.97;8.17;;;;;;;;;;5095293;28;20519;-69
2022/04/24 08:46:32;;;;;;;8.57;7.53;;;;;;;;;;5094810;28;20566;-69
2022/04/24 08:49:00;;;;;;;14.60;9.03;;;;;;;;;;5095282;28;20562;-69
2022/04/24 08:51:28;;;;;;;8.10;7.27;;;;;;;;;;5095432;28;20434;-69
2022/04/24 08:53:56;;;;;;;11.47;8.27;;;;;;;;;;5094812;28;20446;-69
2022/04/24 08:56:23;;;;;;;9.27;8.37;;;;;;;;;;5094748;28;20450;-69
2022/04/24 08:58:50;;;;;;;9.20;7.87;;;;;;;;;;5094836;28;20440;-70
2022/04/24 09:01:17;;;;;;;9.47;8.50;;;;;;;;;;5094919;28;20444;-70
2022/04/24 09:03:45;;;;;;;16.97;10.77;;;;;;;;;;5095207;28;20518;-69
2022/04/24 09:06:22;;;;;;;9.07;8.00;;;;;;;;;;5095387;28;20454;-69
2022/04/24 09:08:49;;;;;;;8.90;6.70;;;;;;;;;;5095255;28;20442;-69
2022/04/24 09:11:19;;;;;;;13.10;7.43;;;;;;;;;;5094834;28;20578;-70
2022/04/24 09:16:35;;;;;;;8.80;7.90;;;;;;;;;;5094735;28;20442;-70
2022/04/24 09:19:02;;;;;;;11.53;8.47;;;;;;;;;;5094715;28;20447;-70
2022/04/24 09:21:31;;;;;;;8.43;7.60;;;;;;;;;;5093182;28;20442;-70
2022/04/24 09:24:01;;;;;;;10.30;8.90;;;;;;;;;;5094411;28;20444;-70
2022/04/24 09:26:28;;;;;;;13.63;7.73;;;;;;;;;;5094784;28;20444;-70
2022/04/24 09:28:55;;;;;;;8.93;8.00;;;;;;;;;;5094203;28;20897;-70
2022/04/24 09:31:29;;;;;;;11.07;8.00;;;;;;;;;;5094667;28;20795;-70
2022/04/24 09:33:56;;;;;;;8.30;7.60;;;;;;;;;;5095284;28;20494;-70
2022/04/24 09:36:26;;;;;;;12.00;7.93;;;;;;;;;;5093862;28;20444;-70
2022/04/24 09:38:54;;;;;;;7.97;7.20;;;;;;;;;;5093922;28;20947;-70
2022/04/24 09:41:22;;;;;;;11.90;7.63;;;;;;;;;;5094246;28;20455;-69
2022/04/24 09:43:49;;;;;;;8.07;7.27;;;;;;;;;;5095057;28;20467;-70
2022/04/24 09:46:25;;;;;;;15.30;7.90;;;;;;;;;;5094175;28;20503;-71
2022/04/24 09:48:53;;;;;;;8.37;7.57;;;;;;;;;;5095279;28;20440;-68
2022/04/24 09:51:21;;;;;;;8.27;7.50;;;;;;;;;;5094361;28;20485;-71
2022/04/24 09:53:49;;;;;;;8.73;6.80;;;;;;;;;;5094410;28;20868;-71
2022/04/24 09:56:18;;;;;;;8.13;7.43;;;;;;;;;;5093892;28;20448;-70
2022/04/24 09:58:46;;;;;;;8.80;7.53;;;;;;;;;;5094135;28;20480;-71
2022/04/24 10:01:15;;;;;;;7.57;6.70;;;;;;;;;;5093525;28;20445;-69
2022/04/24 10:03:42;;;;;;;8.53;7.77;;;;;;;;;;5094407;28;20809;-69
2022/04/24 10:06:11;;;;;;;9.00;7.40;;;;;;;;;;5093826;28;20483;-69
2022/04/24 10:08:40;;;;;;;9.70;8.23;;;;;;;;;;5093898;28;20444;-69
2022/04/24 10:11:08;;;;;;;12.37;8.10;;;;;;;;;;5094017;28;20483;-69
2022/04/24 10:13:39;;;;;;;10.53;7.50;;;;;;;;;;5093908;28;20875;-69
2022/04/24 10:16:12;;;;;;;9.63;8.10;;;;;;;;;;5093966;28;20452;-70
2022/04/24 10:18:46;;;;;;;8.20;7.30;;;;;;;;;;5093989;28;20759;-70
2022/04/24 10:21:27;;;;;;;8.93;7.30;;;;;;;;;;5093976;28;20511;-70
2022/04/24 10:23:54;;;;;;;7.30;6.70;;;;;;;;;;5094825;28;20432;-71
2022/04/24 10:26:22;;;;;;;8.90;8.10;;;;;;;;;;5093974;28;20435;-70
2022/04/24 10:29:02;;;;;;;7.90;6.57;;;;;;;;;;5093759;28;20789;-70
2022/04/24 10:31:31;;;;;;;7.80;7.03;;;;;;;;;;5093853;28;20436;-70
2022/04/24 10:33:58;;;;;;;7.90;7.10;;;;;;;;;;5093610;28;20462;-70
2022/04/24 10:36:25;;;;;;;9.30;7.03;;;;;;;;;;5093542;28;20484;-70
2022/04/24 10:38:53;;;;;;;9.97;9.07;;;;;;;;;;5093076;28;20448;-71
2022/04/24 10:41:21;;;;;;;10.87;9.20;;;;;;;;;;5093136;28;20458;-70
2022/04/24 10:43:49;;;;;;;9.40;8.03;;;;;;;;;;5093678;28;20806;-69
2022/04/24 10:46:18;;;;;;;9.93;8.70;;;;;;;;;;5093177;28;20495;-70
2022/04/24 10:48:46;;;;;;;9.67;8.30;;;;;;;;;;5093423;28;20526;-70
2022/04/24 10:51:13;;;;;;;8.77;7.87;;;;;;;;;;5093401;28;20476;-70
2022/04/24 10:53:50;;;;;;;10.30;8.17;;;;;;;;;;5093215;28;20432;-70
2022/04/24 10:56:18;;;;;;;9.50;7.70;;;;;;;;;;5092980;28;20468;-70
2022/04/24 10:58:45;;;;;;;10.60;8.20;;;;;;;;;;5093342;28;20471;-70
2022/04/24 11:01:15;;;;;;;8.87;7.77;;;;;;;;;;5093266;28;20574;-70
2022/04/24 11:03:50;;;;;;;8.20;7.40;;;;;;;;;;5093309;28;20444;-70
2022/04/24 11:06:18;;;;;;;11.00;7.93;;;;;;;;;;5093001;28;20924;-70
2022/04/24 11:08:45;;;;;;;13.40;8.20;;;;;;;;;;5093113;28;20432;-70
2022/04/24 11:11:14;;;;;;;9.37;8.33;;;;;;;;;;5093174;28;20529;-70
2022/04/24 11:13:42;;;;;;;8.53;7.40;;;;;;;;;;5093425;28;20491;-70
2022/04/24 11:16:09;;;;;;;8.47;7.37;;;;;;;;;;5092857;28;20532;-70
2022/04/24 11:18:37;;;;;;;11.00;7.90;;;;;;;;;;5092661;28;20440;-69
2022/04/24 11:21:06;;;;;;;22.83;7.60;;;;;;;;;;5092953;28;20809;-70
2022/04/24 11:23:34;;;;;;;8.57;7.70;;;;;;;;;;5093054;28;20468;-70
2022/04/24 11:26:05;;;;;;;10.03;8.50;;;;;;;;;;5093678;28;20433;-70
2022/04/24 11:28:36;;;;;;;11.50;7.73;;;;;;;;;;5093447;28;20935;-69
2022/04/24 11:31:16;;;;;;;11.90;8.20;;;;;;;;;;5092769;28;20475;-70
2022/04/24 11:33:54;;;;;;;9.27;8.20;;;;;;;;;;5092927;28;20439;-70
2022/04/24 11:36:23;;;;;;;8.73;7.93;;;;;;;;;;5092624;28;20437;-70
2022/04/24 11:38:50;;;;;;;8.97;7.77;;;;;;;;;;5093070;28;20535;-70
2022/04/24 11:41:18;;;;;;;7.70;7.00;;;;;;;;;;5092478;28;20835;-70
2022/04/24 11:43:46;;;;;;;10.70;7.80;;;;;;;;;;5092573;28;20537;-70
2022/04/24 11:51:44;;;;;;;10.37;8.70;;;;;;;;;;5096379;28;20512;-71
2022/04/24 11:54:12;;;;;;;8.80;7.80;;;;;;;;;;5096797;28;20532;-71
2022/04/24 11:56:39;;;;;;;12.00;8.47;;;;;;;;;;5096722;28;20516;-70
2022/04/24 11:59:15;;;;;;;8.40;7.60;;;;;;;;;;5096278;28;20843;-70
2022/04/24 12:01:43;;;;;;;9.60;7.93;;;;;;;;;;5096175;28;20918;-70
2022/04/24 12:04:17;;;;;;;7.80;7.10;;;;;;;;;;5096194;28;20452;-70
2022/04/24 12:06:46;;;;;;;8.70;7.27;;;;;;;;;;5096126;28;20416;-69
2022/04/24 12:09:14;;;;;;;9.30;7.80;;;;;;;;;;5096462;28;20449;-69
2022/04/24 12:11:41;;;;;;;8.50;7.60;;;;;;;;;;5096142;28;20482;-70
2022/04/24 12:14:10;;;;;;;8.10;7.40;;;;;;;;;;5096291;28;20486;-70
2022/04/24 12:16:39;;;;;;;7.63;6.83;;;;;;;;;;5096094;28;20453;-70
2022/04/24 12:19:07;;;;;;;8.93;8.07;;;;;;;;;;5095770;28;20524;-69
2022/04/24 12:21:36;;;;;;;7.87;6.90;;;;;;;;;;5096225;28;20864;-69
2022/04/24 12:24:05;;;;;;;7.40;6.70;;;;;;;;;;5096207;28;20538;-69
2022/04/24 12:26:32;;;;;;;10.50;6.50;;;;;;;;;;5096010;28;20464;-70
2022/04/24 12:29:05;;;;;;;8.30;7.50;;;;;;;;;;5096676;28;20759;-70
2022/04/24 12:31:35;;;;;;;8.60;7.73;;;;;;;;;;5096083;28;20976;-70
2022/04/24 12:34:02;;;;;;;7.10;6.40;;;;;;;;;;5096119;28;20486;-70
2022/04/24 12:36:29;;;;;;;8.30;6.87;;;;;;;;;;5095712;28;20473;-70
2022/04/24 12:38:58;;;;;;;8.53;6.57;;;;;;;;;;5096273;28;20473;-71
2022/04/24 12:41:28;;;;;;;9.63;6.83;;;;;;;;;;5095760;28;20442;-71
2022/04/24 12:43:56;;;;;;;7.97;7.17;;;;;;;;;;5095751;28;20440;-70
2022/04/24 12:46:23;;;;;;;8.30;7.50;;;;;;;;;;5095475;28;20471;-70
2022/04/24 12:48:51;;;;;;;10.77;7.10;;;;;;;;;;5095277;28;20625;-70
2022/04/24 12:51:18;;;;;;;7.27;6.40;;;;;;;;;;5095464;28;20890;-70
2022/04/24 12:53:46;;;;;;;13.67;6.60;;;;;;;;;;5095448;28;20439;-69
2022/04/24 12:56:13;;;;;;;8.50;6.77;;;;;;;;;;5094980;28;20471;-70
2022/04/24 12:58:42;;;;;;;6.80;6.20;;;;;;;;;;5093778;28;20458;-71
2022/04/24 13:01:12;;;;;;;6.70;6.17;;;;;;;;;;5095054;28;20451;-71
2022/04/24 13:03:40;;;;;;;7.77;6.30;;;;;;;;;;5095553;28;20471;-70
2022/04/24 13:06:08;;;;;;;6.77;5.80;;;;;;;;;;5095314;28;20446;-70
2022/04/24 13:08:36;;;;;;;8.90;5.77;;;;;;;;;;5095189;28;20805;-70
2022/04/24 13:11:04;;;;;;;7.50;6.77;;;;;;;;;;5094834;28;21015;-70
2022/04/24 13:13:32;;;;;;;7.43;5.10;;;;;;;;;;5095225;28;20441;-70
2022/04/24 13:18:54;;;;;;;5.77;5.27;;;;;;;;;;5069246;28;20511;-70
2022/04/24 13:21:22;;;;;;;7.27;5.77;;;;;;;;;;5094753;28;20531;-70
2022/04/24 13:23:49;;;;;;;7.43;5.60;;;;;;;;;;5094522;28;20515;-70
2022/04/24 13:26:16;;;;;;;5.97;5.47;;;;;;;;;;5095244;28;20447;-71
2022/04/24 13:28:43;;;;;;;7.87;6.40;;;;;;;;;;5094639;28;20446;-70
2022/04/24 13:31:12;;;;;;;7.43;6.73;;;;;;;;;;5095131;28;20565;-70
2022/04/24 13:33:39;;;;;;;6.00;5.40;;;;;;;;;;5094398;28;20527;-70
2022/04/24 13:36:07;;;;;;;5.60;5.00;;;;;;;;;;5094685;28;20443;-71
2022/04/24 13:38:35;;;;;;;7.20;5.87;;;;;;;;;;5093721;28;21021;-70
2022/04/24 13:41:02;;;;;;;6.63;6.03;;;;;;;;;;5094221;28;20483;-70
2022/04/24 13:43:31;;;;;;;8.63;5.10;;;;;;;;;;5094436;28;20435;-71
2022/04/24 13:45:59;;;;;;;7.83;5.80;;;;;;;;;;5094637;28;20552;-70
2022/04/24 13:48:30;;;;;;;5.67;5.17;;;;;;;;;;5094035;28;20971;-70
2022/04/24 13:50:57;;;;;;;6.20;5.60;;;;;;;;;;5094016;28;20470;-70
2022/04/24 13:53:26;;;;;;;7.13;5.03;;;;;;;;;;5093747;28;20440;-70
2022/04/24 13:55:53;;;;;;;6.97;4.80;;;;;;;;;;5094041;28;20444;-70
2022/04/24 13:58:21;;;;;;;8.97;7.63;;;;;;;;;;5094055;28;20500;-70
2022/04/24 14:00:49;;;;;;;7.23;5.47;;;;;;;;;;5093457;28;20456;-70
2022/04/24 14:03:18;;;;;;;10.60;6.03;;;;;;;;;;5094328;28;20531;-70
2022/04/24 14:05:47;;;;;;;11.20;8.60;;;;;;;;;;5094243;28;20453;-70
2022/04/24 14:08:15;;;;;;;16.23;13.10;;;;;;;;;;5093773;28;20787;-70
2022/04/24 14:10:42;;;;;;;13.43;9.10;;;;;;;;;;5094105;28;20869;-70
2022/04/24 14:13:10;;;;;;;6.47;5.87;;;;;;;;;;5093613;28;20486;-71
2022/04/24 14:15:37;;;;;;;10.83;5.83;;;;;;;;;;5094086;28;20789;-70
2022/04/24 14:18:04;;;;;;;7.27;6.60;;;;;;;;;;5093422;28;20482;-70
2022/04/24 14:20:32;;;;;;;6.37;5.77;;;;;;;;;;5093459;28;20439;-70
2022/04/24 14:23:02;;;;;;;4.83;4.53;;;;;;;;;;5093722;28;20444;-71
2022/04/24 14:25:29;;;;;;;5.70;5.10;;;;;;;;;;5094145;28;20439;-71
2022/04/24 14:27:57;;;;;;;8.27;4.70;;;;;;;;;;5093706;28;20878;-71
2022/04/24 14:30:24;;;;;;;10.33;6.60;;;;;;;;;;5093663;28;20440;-71
2022/04/24 14:32:51;;;;;;;5.90;5.40;;;;;;;;;;5093440;28;20530;-71
2022/04/24 14:35:21;;;;;;;8.00;5.93;;;;;;;;;;5093558;28;20501;-71
2022/04/24 14:37:49;;;;;;;8.73;6.50;;;;;;;;;;5094218;28;20524;-72
2022/04/24 14:40:17;;;;;;;6.00;5.50;;;;;;;;;;5092888;28;20462;-72
2022/04/24 14:42:45;;;;;;;6.40;5.80;;;;;;;;;;5092570;28;20450;-72
2022/04/24 14:45:13;;;;;;;8.10;5.13;;;;;;;;;;5092891;28;21030;-72
2022/04/24 14:55:56;;;;;;;6.63;6.00;;;;;;;;;;5092969;28;20404;-71
2022/04/24 14:58:23;;;;;;;6.23;5.60;;;;;;;;;;5093168;28;20445;-71
2022/04/24 15:00:51;;;;;;;7.37;5.33;;;;;;;;;;5092829;28;20531;-71
2022/04/24 15:03:19;;;;;;;5.43;4.93;;;;;;;;;;5092867;28;20439;-71
2022/04/24 15:05:46;;;;;;;6.43;4.87;;;;;;;;;;5092942;28;20441;-71